METAR Data
IDs: Format: Raw Decoded Include TAF

Data at: 1331 UTC 24 Jan 2021

PAIN 241256Z AUTO 36008G15KT 10SM FEW029 OVC038 M07/M09 A2971 RMK AO2 SLP097 T10721094 FZRANO